createdAt,value
2018-05-15T00:03:40.884Z,46.60
2018-05-15T00:07:43.528Z,46.60
2018-05-15T00:11:46.933Z,46.70
2018-05-15T00:15:50.383Z,46.70
2018-05-15T00:19:53.016Z,46.70
2018-05-15T00:23:55.720Z,46.60
2018-05-15T00:27:59.125Z,46.70
2018-05-15T00:32:02.536Z,46.90
2018-05-15T00:36:05.959Z,46.90
2018-05-15T00:40:08.605Z,46.90
2018-05-15T00:44:11.307Z,47.00
2018-05-15T00:48:13.908Z,47.10
2018-05-15T00:52:17.317Z,47.20
2018-05-15T00:56:20.685Z,47.90
2018-05-15T01:00:23.439Z,47.30
2018-05-15T01:04:26.081Z,47.30
2018-05-15T01:08:28.715Z,48.00
2018-05-15T01:12:31.348Z,47.40
2018-05-15T01:16:33.952Z,47.40
2018-05-15T01:20:36.625Z,47.40
2018-05-15T01:24:39.304Z,47.40
2018-05-15T01:28:41.944Z,47.50
2018-05-15T01:32:44.640Z,47.50
2018-05-15T01:36:47.237Z,47.50
2018-05-15T01:40:49.876Z,47.60
2018-05-15T01:44:52.589Z,47.60
2018-05-15T01:48:55.185Z,48.00
2018-05-15T01:52:57.815Z,47.70
2018-05-15T01:57:00.429Z,47.80
2018-05-15T02:01:03.072Z,47.80
2018-05-15T02:05:05.700Z,47.70
2018-05-15T02:09:08.348Z,47.70
2018-05-15T02:13:10.988Z,47.80
2018-05-15T02:17:14.357Z,47.90
2018-05-15T02:21:17.002Z,47.80
2018-05-15T02:25:19.640Z,47.50
2018-05-15T02:29:22.332Z,48.00
2018-05-15T02:33:24.973Z,48.00
2018-05-15T02:37:27.578Z,48.00
2018-05-15T02:41:30.217Z,47.90
2018-05-15T02:45:32.865Z,48.00
2018-05-15T02:49:35.508Z,48.10
2018-05-15T02:53:38.919Z,48.00
2018-05-15T02:57:42.289Z,48.00
2018-05-15T03:01:44.928Z,48.00
2018-05-15T03:05:47.569Z,48.00
2018-05-15T03:09:50.204Z,48.10
2018-05-15T03:13:52.844Z,48.20
2018-05-15T03:17:55.464Z,48.10
2018-05-15T03:21:58.128Z,48.20
2018-05-15T03:26:00.766Z,48.20
2018-05-15T03:30:03.413Z,48.10
2018-05-15T03:34:06.140Z,48.20
2018-05-15T03:38:08.738Z,48.30
2018-05-15T03:42:11.383Z,48.40
2018-05-15T03:46:14.782Z,48.50
2018-05-15T03:50:17.480Z,48.40
2018-05-15T03:54:20.885Z,48.50
2018-05-15T03:58:24.255Z,48.40
2018-05-15T04:02:38.731Z,48.40
2018-05-15T04:06:53.217Z,48.40
2018-05-15T04:10:56.737Z,48.90
2018-05-15T04:14:59.349Z,48.40
2018-05-15T04:19:01.946Z,48.50
2018-05-15T04:23:04.584Z,48.50
2018-05-15T04:27:07.220Z,48.50
2018-05-15T04:31:09.905Z,48.60
2018-05-15T04:35:12.643Z,48.60
2018-05-15T04:39:15.211Z,48.70
2018-05-15T04:43:17.904Z,48.80
2018-05-15T04:47:20.609Z,48.60
2018-05-15T04:51:23.247Z,48.80
2018-05-15T04:55:25.880Z,48.80
2018-05-15T04:59:28.549Z,48.90
2018-05-15T05:03:31.220Z,49.00
2018-05-15T05:07:33.861Z,49.20
2018-05-15T05:11:36.506Z,49.00
2018-05-15T05:15:39.148Z,49.80
2018-05-15T05:19:42.531Z,49.40
2018-05-15T05:23:45.167Z,49.30
2018-05-15T05:27:47.800Z,49.40
2018-05-15T05:31:51.234Z,49.40
2018-05-15T05:35:54.644Z,49.50
2018-05-15T05:39:58.138Z,49.60
2018-05-15T05:44:00.763Z,49.60
2018-05-15T05:48:03.408Z,49.60
2018-05-15T05:52:06.137Z,49.80
2018-05-15T05:56:08.720Z,50.00
2018-05-15T06:00:11.320Z,49.80
2018-05-15T06:04:13.952Z,49.80
2018-05-15T06:08:16.589Z,50.20
2018-05-15T06:12:19.231Z,50.10
2018-05-15T06:16:21.868Z,50.20
2018-05-15T06:20:24.471Z,50.10
2018-05-15T06:24:27.112Z,50.20
2018-05-15T06:28:30.572Z,52.70
2018-05-15T06:32:33.210Z,53.40
2018-05-15T06:36:36.678Z,53.80
2018-05-15T06:40:39.339Z,53.30
2018-05-15T06:44:42.023Z,51.30
2018-05-15T06:48:45.468Z,48.90
2018-05-15T06:52:48.169Z,48.80
2018-05-15T06:56:50.808Z,47.80
2018-05-15T07:00:53.404Z,46.80
2018-05-15T07:04:56.044Z,46.70
2018-05-15T07:08:58.687Z,46.50
2018-05-15T07:13:01.328Z,45.40
2018-05-15T07:17:03.971Z,45.20
2018-05-15T07:21:06.567Z,44.20
2018-05-15T07:25:09.212Z,43.00
2018-05-15T07:29:12.620Z,42.70
2018-05-15T07:33:16.139Z,42.60
2018-05-15T07:37:18.688Z,42.60
2018-05-15T07:41:21.452Z,42.30
2018-05-15T07:45:24.102Z,42.10
2018-05-15T07:49:26.773Z,40.30
2018-05-15T07:53:30.179Z,41.20
2018-05-15T07:57:33.581Z,40.90
2018-05-15T08:01:36.224Z,40.80
2018-05-15T08:05:38.860Z,39.60
2018-05-15T08:09:42.259Z,38.50
2018-05-15T08:13:44.884Z,38.50
2018-05-15T08:17:47.516Z,38.50
2018-05-15T08:21:50.123Z,38.80
2018-05-15T08:25:52.754Z,39.50
2018-05-15T08:29:55.500Z,39.20
2018-05-15T08:33:58.141Z,37.90
2018-05-15T08:38:00.831Z,37.70
2018-05-15T08:42:03.436Z,37.00
2018-05-15T08:46:06.075Z,39.00
2018-05-15T08:50:08.702Z,39.40
2018-05-15T08:54:11.332Z,39.00
2018-05-15T08:58:14.732Z,39.00
2018-05-15T09:02:17.336Z,39.00
2018-05-15T09:06:20.744Z,39.80
2018-05-15T09:10:23.380Z,39.80
2018-05-15T09:14:26.020Z,39.90
2018-05-15T09:18:29.476Z,41.00
2018-05-15T09:22:32.073Z,40.90
2018-05-15T09:26:34.709Z,40.80
2018-05-15T09:30:37.350Z,41.60
2018-05-15T09:34:39.989Z,41.80
2018-05-15T09:38:42.616Z,42.00
2018-05-15T09:42:45.225Z,42.50
2018-05-15T09:46:47.919Z,42.40
2018-05-15T09:50:50.521Z,42.60
2018-05-15T09:54:53.926Z,41.20
2018-05-15T09:58:57.324Z,42.40
2018-05-15T10:03:00.005Z,42.30
2018-05-15T10:07:02.639Z,42.70
2018-05-15T10:11:05.270Z,41.90
2018-05-15T10:15:07.906Z,42.10
2018-05-15T10:19:10.545Z,42.00
2018-05-15T10:23:13.151Z,42.30
2018-05-15T10:27:15.790Z,42.00
2018-05-15T10:31:18.423Z,41.50
2018-05-15T10:35:21.828Z,41.90
2018-05-15T10:39:24.460Z,41.50
2018-05-15T10:43:27.057Z,41.60
2018-05-15T10:47:29.689Z,41.30
2018-05-15T10:51:32.329Z,41.50
2018-05-15T10:55:34.957Z,41.90
2018-05-15T10:59:37.676Z,40.80
2018-05-15T11:03:40.281Z,41.80
2018-05-15T11:07:42.922Z,41.20
2018-05-15T11:11:45.558Z,41.00
2018-05-15T11:15:48.253Z,41.40
2018-05-15T11:20:02.791Z,41.40
2018-05-15T11:28:43.904Z,40.80
2018-05-15T11:32:47.300Z,42.30
2018-05-15T11:36:50.019Z,41.80
2018-05-15T11:40:52.748Z,40.50
2018-05-15T11:49:03.159Z,38.10
2018-05-15T11:53:05.953Z,38.10
2018-05-15T11:57:07.824Z,38.50
2018-05-15T12:01:10.521Z,39.00
2018-05-15T12:05:13.951Z,39.30
2018-05-15T12:09:17.353Z,39.90
2018-05-15T12:13:20.816Z,39.40
2018-05-15T12:17:23.461Z,39.40
2018-05-15T12:21:26.878Z,38.80
2018-05-15T12:25:29.584Z,38.80
2018-05-15T12:29:32.214Z,39.60
2018-05-15T12:33:34.861Z,39.90
2018-05-15T12:37:37.510Z,38.90
2018-05-15T12:41:40.941Z,40.10
2018-05-15T12:45:43.629Z,40.10
2018-05-15T12:49:46.224Z,39.90
2018-05-15T12:53:48.861Z,39.00
2018-05-15T12:57:51.506Z,39.10
2018-05-15T13:01:54.194Z,39.50
2018-05-15T13:05:56.827Z,39.80
2018-05-15T13:09:59.426Z,39.70
2018-05-15T13:14:02.100Z,40.20
2018-05-15T13:18:04.731Z,40.20
2018-05-15T13:22:07.377Z,39.50
2018-05-15T13:26:10.089Z,40.20
2018-05-15T13:30:13.452Z,39.70
2018-05-15T13:34:16.097Z,39.60
2018-05-15T13:38:19.498Z,38.90
2018-05-15T13:42:22.948Z,37.60
2018-05-15T13:46:25.608Z,37.60
2018-05-15T13:50:28.272Z,38.50
2018-05-15T13:54:30.937Z,37.90
2018-05-15T13:58:33.625Z,37.30
2018-05-15T14:02:36.274Z,37.50
2018-05-15T14:06:39.007Z,37.20
2018-05-15T14:10:41.569Z,37.50
2018-05-15T14:14:44.213Z,37.80
2018-05-15T14:18:47.621Z,37.10
2018-05-15T14:22:51.022Z,36.60
2018-05-15T14:26:54.429Z,38.10
2018-05-15T14:30:57.808Z,36.60
2018-05-15T14:35:00.498Z,36.50
2018-05-15T14:39:03.138Z,35.20
2018-05-15T14:47:37.059Z,36.10
2018-05-15T14:51:40.429Z,34.50
2018-05-15T14:55:43.073Z,34.40
2018-05-15T14:59:45.708Z,36.40
2018-05-15T15:03:48.348Z,34.10
2018-05-15T15:07:50.981Z,34.80
2018-05-15T15:11:53.636Z,36.20
2018-05-15T15:15:56.277Z,37.00
2018-05-15T15:19:58.908Z,36.70
2018-05-15T15:24:01.545Z,36.30
2018-05-15T15:28:04.190Z,36.80
2018-05-15T15:32:06.791Z,36.50
2018-05-15T15:36:09.433Z,35.00
2018-05-15T15:40:12.828Z,36.30
2018-05-15T15:44:15.469Z,36.30
2018-05-15T15:48:18.099Z,33.20
2018-05-15T15:52:20.761Z,34.40
2018-05-15T15:56:23.392Z,35.30
2018-05-15T16:00:26.804Z,34.90
2018-05-15T16:04:30.201Z,33.40
2018-05-15T16:08:33.694Z,34.30
2018-05-15T16:12:36.226Z,34.20
2018-05-15T16:20:38.265Z,33.00
2018-05-15T16:24:40.912Z,34.10
2018-05-15T16:28:43.570Z,35.40
2018-05-15T16:32:46.944Z,35.20
2018-05-15T16:36:49.639Z,35.20
2018-05-15T16:40:52.280Z,35.20
2018-05-15T16:44:54.916Z,36.00
2018-05-15T16:48:57.561Z,36.20
2018-05-15T16:53:00.168Z,36.60
2018-05-15T16:57:02.863Z,36.50
2018-05-15T17:05:02.952Z,36.40
2018-05-15T17:09:06.341Z,36.40
2018-05-15T17:13:09.066Z,36.50
2018-05-15T17:17:11.735Z,36.80
2018-05-15T17:21:14.419Z,36.80
2018-05-15T17:25:17.112Z,36.50
2018-05-15T17:29:19.748Z,37.30
2018-05-15T17:33:22.408Z,37.40
2018-05-15T17:37:25.814Z,37.90
2018-05-15T17:41:29.264Z,38.10
2018-05-15T17:45:31.902Z,38.00
2018-05-15T17:49:35.311Z,38.00
2018-05-15T17:53:38.743Z,38.00
2018-05-15T17:57:41.435Z,38.00
2018-05-15T18:01:44.120Z,38.20
2018-05-15T18:05:46.752Z,38.20
2018-05-15T18:09:49.392Z,38.50
2018-05-15T18:13:51.993Z,38.60
2018-05-15T18:17:54.641Z,38.80
2018-05-15T18:21:57.301Z,38.80
2018-05-15T18:25:59.941Z,38.90
2018-05-15T18:30:02.635Z,39.00
2018-05-15T18:34:05.235Z,39.10
2018-05-15T18:38:07.873Z,39.20
2018-05-15T18:42:10.505Z,39.10
2018-05-15T18:46:13.139Z,39.20
2018-05-15T18:50:16.616Z,39.40
2018-05-15T18:54:19.228Z,39.30
2018-05-15T18:58:21.872Z,39.30
2018-05-15T19:02:24.511Z,39.30
2018-05-15T19:06:27.156Z,41.10
2018-05-15T19:10:29.874Z,41.40
2018-05-15T19:14:32.488Z,41.70
2018-05-15T19:18:35.186Z,41.50
2018-05-15T19:22:38.650Z,42.50
2018-05-15T19:26:41.340Z,42.10
2018-05-15T19:30:43.972Z,41.90
2018-05-15T19:34:53.029Z,42.70
2018-05-15T19:39:01.343Z,41.90
2018-05-15T19:43:04.749Z,42.70
2018-05-15T19:47:08.157Z,43.00
2018-05-15T19:51:11.568Z,44.30
2018-05-15T19:55:14.193Z,44.20
2018-05-15T19:59:16.823Z,43.10
2018-05-15T20:03:20.227Z,44.10
2018-05-15T20:07:22.860Z,43.60
2018-05-15T20:11:25.534Z,43.40
2018-05-15T20:15:28.148Z,43.60
2018-05-15T20:19:30.785Z,43.90
2018-05-15T20:23:34.188Z,43.40
2018-05-15T20:27:36.879Z,43.40
2018-05-15T20:31:40.286Z,43.80
2018-05-15T20:35:43.653Z,44.30
2018-05-15T20:39:46.294Z,44.00
2018-05-15T20:43:49.696Z,44.60
2018-05-15T20:47:53.109Z,45.00
2018-05-15T20:51:56.522Z,44.90
2018-05-15T20:55:59.200Z,44.90
2018-05-15T21:00:02.665Z,45.20
2018-05-15T21:04:05.305Z,44.60
2018-05-15T21:08:07.939Z,45.70
2018-05-15T21:12:10.632Z,45.50
2018-05-15T21:16:13.233Z,45.60
2018-05-15T21:20:15.873Z,45.60
2018-05-15T21:24:18.508Z,47.50
2018-05-15T21:28:21.145Z,46.30
2018-05-15T21:32:23.837Z,46.60
2018-05-15T21:36:26.620Z,48.60
2018-05-15T21:40:29.251Z,50.20
2018-05-15T21:44:32.685Z,49.20
2018-05-15T21:48:35.316Z,49.30
2018-05-15T21:52:38.010Z,48.80
2018-05-15T21:56:41.352Z,49.40
2018-05-15T22:00:44.036Z,49.40
2018-05-15T22:04:46.686Z,53.40
2018-05-15T22:08:49.384Z,51.50
2018-05-15T22:13:03.801Z,51.60
2018-05-15T22:17:18.974Z,54.60
2018-05-15T22:21:33.402Z,53.80
2018-05-15T22:25:36.032Z,55.10
2018-05-15T22:29:38.664Z,55.00
2018-05-15T22:33:41.299Z,55.80
2018-05-15T22:37:43.932Z,53.30
2018-05-15T22:41:46.538Z,51.80
2018-05-15T22:45:49.171Z,51.70
2018-05-15T22:49:51.844Z,51.40
2018-05-15T22:53:54.541Z,51.50
2018-05-15T22:57:57.976Z,50.20
2018-05-15T23:02:00.583Z,50.20
2018-05-15T23:06:03.212Z,50.10
2018-05-15T23:10:05.911Z,50.10
2018-05-15T23:14:08.588Z,50.20
2018-05-15T23:18:11.212Z,50.50
2018-05-15T23:22:26.341Z,50.70
2018-05-15T23:26:28.984Z,50.70
2018-05-15T23:30:32.380Z,50.20
2018-05-15T23:34:35.782Z,50.00
2018-05-15T23:38:38.420Z,50.00
2018-05-15T23:42:41.024Z,50.00
2018-05-15T23:46:43.661Z,50.30
2018-05-15T23:50:47.064Z,50.30
2018-05-15T23:54:50.576Z,50.40
2018-05-15T23:58:53.980Z,50.30
